createdAt,value
2017-11-10T00:00:09.958Z,21.63
2017-11-10T00:02:38.206Z,22.03
2017-11-10T00:05:05.683Z,21.57
2017-11-10T00:07:33.273Z,22.93
2017-11-10T00:10:00.728Z,22.23
2017-11-10T00:12:28.202Z,20.57
2017-11-10T00:14:55.675Z,21.23
2017-11-10T00:17:23.154Z,22.30
2017-11-10T00:19:50.637Z,23.90
2017-11-10T00:22:18.877Z,22.13
2017-11-10T00:24:46.371Z,22.27
2017-11-10T00:27:14.609Z,21.70
2017-11-10T00:29:42.085Z,21.23
2017-11-10T00:32:09.538Z,22.10
2017-11-10T00:34:37.097Z,19.83
2017-11-10T00:37:04.590Z,20.97
2017-11-10T00:39:32.081Z,19.90
2017-11-10T00:41:59.561Z,20.80
2017-11-10T00:44:27.049Z,20.33
2017-11-10T00:46:55.296Z,18.50
2017-11-10T00:49:22.766Z,19.93
2017-11-10T00:51:50.999Z,19.53
2017-11-10T00:54:18.559Z,19.03
2017-11-10T00:56:46.019Z,20.50
2017-11-10T00:59:13.502Z,19.97
2017-11-10T01:01:41.907Z,19.20
2017-11-10T01:04:10.272Z,17.30
2017-11-10T01:06:37.742Z,19.00
2017-11-10T01:09:05.987Z,18.40
2017-11-10T01:11:33.472Z,17.13
2017-11-10T01:14:01.798Z,17.83
2017-11-10T01:16:30.129Z,17.80
2017-11-10T01:18:58.473Z,17.77
2017-11-10T01:21:25.942Z,18.70
2017-11-10T01:23:53.562Z,17.33
2017-11-10T01:26:21.035Z,17.37
2017-11-10T01:28:48.501Z,15.70
2017-11-10T01:31:15.976Z,17.83
2017-11-10T01:33:43.442Z,16.30
2017-11-10T01:36:10.905Z,16.20
2017-11-10T01:38:39.255Z,16.33
2017-11-10T01:41:06.731Z,15.77
2017-11-10T01:43:34.203Z,15.47
2017-11-10T01:46:02.448Z,15.07
2017-11-10T01:48:30.831Z,15.33
2017-11-10T01:50:58.298Z,15.70
2017-11-10T01:53:26.558Z,15.20
2017-11-10T01:55:55.527Z,15.17
2017-11-10T01:58:23.113Z,15.97
2017-11-10T02:00:50.578Z,15.60
2017-11-10T02:03:18.099Z,13.70
2017-11-10T02:05:46.641Z,15.97
2017-11-10T02:08:14.279Z,15.40
2017-11-10T02:10:41.908Z,15.13
2017-11-10T02:13:10.495Z,16.10
2017-11-10T02:15:37.975Z,15.80
2017-11-10T02:18:05.441Z,15.27
2017-11-10T02:20:33.711Z,14.90
2017-11-10T02:23:01.184Z,14.03
2017-11-10T02:25:29.431Z,15.03
2017-11-10T02:27:57.670Z,15.57
2017-11-10T02:30:25.143Z,15.23
2017-11-10T02:32:52.612Z,14.70
2017-11-10T02:35:20.088Z,16.43
2017-11-10T02:37:47.549Z,15.63
2017-11-10T02:40:15.789Z,15.10
2017-11-10T02:42:43.291Z,14.70
2017-11-10T02:45:13.327Z,16.47
2017-11-10T02:47:40.806Z,17.53
2017-11-10T02:50:08.286Z,16.60
2017-11-10T02:52:35.756Z,15.90
2017-11-10T02:55:03.993Z,16.40
2017-11-10T02:57:31.453Z,15.60
2017-11-10T02:59:58.933Z,15.20
2017-11-10T03:02:26.407Z,15.37
2017-11-10T03:04:53.894Z,14.40
2017-11-10T03:07:22.123Z,14.70
2017-11-10T03:09:49.590Z,16.00
2017-11-10T03:12:17.061Z,17.47
2017-11-10T03:14:45.336Z,15.10
2017-11-10T03:17:13.579Z,16.10
2017-11-10T03:19:41.039Z,15.80
2017-11-10T03:22:08.527Z,17.20
2017-11-10T03:24:36.822Z,17.23
2017-11-10T03:27:04.301Z,17.67
2017-11-10T03:29:31.775Z,15.37
2017-11-10T03:31:59.270Z,15.23
2017-11-10T03:34:26.762Z,16.40
2017-11-10T03:36:54.257Z,15.20
2017-11-10T03:39:21.884Z,16.23
2017-11-10T03:41:49.354Z,16.67
2017-11-10T03:44:16.834Z,16.60
2017-11-10T03:46:44.299Z,15.73
2017-11-10T03:49:11.779Z,15.97
2017-11-10T03:51:39.427Z,16.00
2017-11-10T03:54:08.407Z,16.17
2017-11-10T03:56:35.962Z,15.30
2017-11-10T03:59:03.427Z,14.73
2017-11-10T04:01:30.923Z,14.63
2017-11-10T04:03:59.152Z,16.40
2017-11-10T04:06:26.637Z,15.20
2017-11-10T04:08:54.138Z,15.57
2017-11-10T04:11:21.595Z,17.30
2017-11-10T04:13:49.091Z,16.97
2017-11-10T04:16:16.563Z,17.17
2017-11-10T04:18:44.065Z,15.93
2017-11-10T04:21:11.559Z,16.63
2017-11-10T04:23:39.049Z,16.93
2017-11-10T04:26:07.292Z,17.00
2017-11-10T04:28:34.753Z,16.17
2017-11-10T04:31:02.229Z,17.03
2017-11-10T04:33:30.473Z,17.50
2017-11-10T04:35:57.936Z,16.43
2017-11-10T04:38:25.420Z,16.33
2017-11-10T04:40:53.668Z,16.97
2017-11-10T04:43:21.318Z,16.70
2017-11-10T04:45:48.820Z,17.20
2017-11-10T04:48:17.056Z,17.07
2017-11-10T04:50:44.508Z,16.80
2017-11-10T04:53:11.994Z,16.37
2017-11-10T04:55:39.496Z,17.00
2017-11-10T04:58:06.977Z,16.80
2017-11-10T05:00:34.465Z,17.23
2017-11-10T05:03:02.065Z,16.20
2017-11-10T05:05:29.547Z,15.80
2017-11-10T05:07:56.982Z,15.70
2017-11-10T05:10:24.446Z,17.50
2017-11-10T05:12:51.923Z,14.80
2017-11-10T05:15:19.402Z,16.30
2017-11-10T05:17:47.083Z,16.63
2017-11-10T05:20:15.309Z,17.17
2017-11-10T05:22:42.793Z,17.37
2017-11-10T05:25:10.253Z,17.07
2017-11-10T05:27:37.734Z,15.93
2017-11-10T05:30:05.967Z,17.27
2017-11-10T05:32:33.446Z,16.10
2017-11-10T05:35:00.946Z,16.87
2017-11-10T05:37:28.427Z,17.07
2017-11-10T05:39:55.899Z,16.57
2017-11-10T05:42:24.138Z,16.70
2017-11-10T05:44:51.676Z,16.40
2017-11-10T05:47:19.130Z,18.10
2017-11-10T05:49:46.612Z,17.20
2017-11-10T05:52:14.070Z,16.10
2017-11-10T05:54:41.554Z,17.17
2017-11-10T05:57:09.024Z,16.37
2017-11-10T05:59:36.569Z,18.03
2017-11-10T06:02:04.002Z,16.73
2017-11-10T06:04:31.538Z,16.80
2017-11-10T06:06:59.003Z,16.77
2017-11-10T06:09:26.497Z,17.87
2017-11-10T06:11:54.071Z,15.90
2017-11-10T06:14:21.565Z,16.93
2017-11-10T06:16:49.057Z,17.43
2017-11-10T06:19:16.534Z,16.00
2017-11-10T06:21:43.999Z,15.10
2017-11-10T06:24:11.469Z,15.50
2017-11-10T06:26:38.944Z,16.40
2017-11-10T06:29:07.181Z,16.43
2017-11-10T06:31:34.655Z,16.80
2017-11-10T06:34:02.923Z,15.90
2017-11-10T06:36:31.905Z,15.40
2017-11-10T06:38:59.368Z,15.50
2017-11-10T06:41:26.958Z,16.73
2017-11-10T06:43:55.202Z,17.17
2017-11-10T06:46:22.659Z,16.03
2017-11-10T06:48:50.329Z,15.30
2017-11-10T06:51:19.293Z,14.53
2017-11-10T06:53:46.756Z,15.87
2017-11-10T06:56:14.258Z,15.30
2017-11-10T06:58:42.517Z,15.70
2017-11-10T07:01:10.423Z,15.33
2017-11-10T07:03:37.932Z,15.47
2017-11-10T07:06:05.466Z,15.20
2017-11-10T07:08:33.760Z,13.97
2017-11-10T07:11:01.254Z,14.57
2017-11-10T07:13:28.736Z,15.03
2017-11-10T07:15:56.219Z,15.30
2017-11-10T07:18:23.711Z,15.00
2017-11-10T07:20:51.954Z,13.40
2017-11-10T07:23:19.463Z,15.80
2017-11-10T07:25:46.962Z,14.50
2017-11-10T07:28:14.454Z,14.00
2017-11-10T07:30:42.753Z,14.30
2017-11-10T07:33:10.252Z,14.33
2017-11-10T07:35:37.815Z,13.80
2017-11-10T07:38:05.301Z,14.47
2017-11-10T07:40:32.778Z,13.47
2017-11-10T07:43:00.242Z,14.73
2017-11-10T07:45:27.786Z,14.37
2017-11-10T07:47:56.035Z,13.87
2017-11-10T07:50:23.514Z,13.50
2017-11-10T07:52:51.790Z,13.30
2017-11-10T07:55:20.070Z,14.77
2017-11-10T07:57:48.319Z,13.30
2017-11-10T08:00:16.510Z,12.63
2017-11-10T08:02:44.790Z,13.10
2017-11-10T08:05:13.060Z,13.70
2017-11-10T08:07:40.627Z,13.20
2017-11-10T08:10:08.178Z,12.20
2017-11-10T08:12:36.450Z,13.57
2017-11-10T08:15:03.924Z,12.50
2017-11-10T08:17:31.423Z,12.10
2017-11-10T08:19:59.137Z,11.07
2017-11-10T08:22:27.416Z,12.87
2017-11-10T08:24:55.681Z,10.87
2017-11-10T08:27:23.143Z,10.83
2017-11-10T08:29:50.694Z,11.40
2017-11-10T08:32:18.932Z,10.80
2017-11-10T08:34:46.894Z,11.20
2017-11-10T08:37:14.712Z,10.73
2017-11-10T08:39:43.210Z,10.70
2017-11-10T08:42:10.675Z,10.20
2017-11-10T08:44:38.167Z,10.77
2017-11-10T08:47:06.491Z,10.60
2017-11-10T08:49:34.853Z,9.70
2017-11-10T08:52:02.490Z,9.90
2017-11-10T08:54:30.034Z,9.50
2017-11-10T08:56:57.562Z,10.77
2017-11-10T08:59:25.144Z,9.60
2017-11-10T09:01:52.763Z,9.20
2017-11-10T09:04:21.146Z,9.23
2017-11-10T09:06:49.388Z,9.80
2017-11-10T09:09:16.931Z,9.20
2017-11-10T09:11:44.430Z,9.40
2017-11-10T09:14:12.718Z,10.00
2017-11-10T09:16:40.222Z,8.47
2017-11-10T09:19:07.782Z,8.00
2017-11-10T09:21:35.440Z,7.70
2017-11-10T09:24:03.104Z,9.60
2017-11-10T09:26:30.588Z,9.00
2017-11-10T09:29:02.755Z,8.23
2017-11-10T09:31:32.070Z,9.47
2017-11-10T09:34:16.075Z,7.80
2017-11-10T09:36:49.132Z,8.10
2017-11-10T09:39:27.474Z,8.23
2017-11-10T09:42:01.230Z,8.20
2017-11-10T09:44:43.635Z,7.90
2017-11-10T09:47:26.730Z,6.80
2017-11-10T09:49:57.651Z,7.23
2017-11-10T09:52:39.988Z,7.93
2017-11-10T09:55:10.877Z,7.50
2017-11-10T09:57:57.144Z,7.50
2017-11-10T10:00:30.266Z,8.07
2017-11-10T10:03:03.425Z,7.63
2017-11-10T10:05:41.738Z,6.77
2017-11-10T10:08:28.042Z,7.27
2017-11-10T10:11:12.345Z,7.17
2017-11-10T10:13:55.513Z,6.60
2017-11-10T10:16:30.590Z,7.10
2017-11-10T10:18:58.073Z,7.00
2017-11-10T10:21:27.054Z,6.60
2017-11-10T10:23:54.606Z,8.47
2017-11-10T10:26:22.070Z,7.13
2017-11-10T10:28:49.553Z,8.07
2017-11-10T10:31:17.782Z,7.20
2017-11-10T10:33:45.268Z,7.83
2017-11-10T10:36:12.732Z,7.20
2017-11-10T10:38:41.169Z,8.40
2017-11-10T10:41:08.633Z,8.70
2017-11-10T10:43:36.222Z,8.70
2017-11-10T10:46:05.216Z,9.17
2017-11-10T10:48:32.702Z,8.97
2017-11-10T10:51:00.272Z,10.03
2017-11-10T10:53:27.759Z,10.10
2017-11-10T10:55:55.227Z,9.63
2017-11-10T10:58:22.772Z,10.57
2017-11-10T11:00:50.254Z,11.17
2017-11-10T11:03:17.732Z,11.40
2017-11-10T11:05:45.985Z,11.07
2017-11-10T11:08:13.481Z,11.37
2017-11-10T11:10:40.928Z,10.57
2017-11-10T11:13:08.504Z,11.57
2017-11-10T11:15:35.975Z,11.00
2017-11-10T11:18:04.095Z,10.80
2017-11-10T11:20:32.330Z,10.47
2017-11-10T11:22:59.801Z,10.30
2017-11-10T11:25:27.270Z,10.60
2017-11-10T11:27:54.754Z,11.17
2017-11-10T11:30:23.017Z,10.60
2017-11-10T11:32:50.489Z,11.20
2017-11-10T11:35:18.757Z,11.37
2017-11-10T11:37:46.254Z,10.40
2017-11-10T11:40:13.858Z,11.27
2017-11-10T11:42:41.327Z,12.23
2017-11-10T11:45:09.581Z,12.40
2017-11-10T11:47:37.264Z,12.40
2017-11-10T11:50:04.729Z,13.00
2017-11-10T11:52:32.982Z,13.63
2017-11-10T11:55:00.466Z,12.10
2017-11-10T11:57:29.315Z,10.97
2017-11-10T11:59:56.789Z,10.60
2017-11-10T12:02:24.257Z,5.30
2017-11-10T12:04:51.718Z,5.20
2017-11-10T12:07:19.967Z,5.10
2017-11-10T12:09:47.618Z,5.30
2017-11-10T12:12:15.222Z,5.13
2017-11-10T12:14:43.454Z,4.50
2017-11-10T12:17:10.934Z,4.80
2017-11-10T12:19:38.393Z,4.67
2017-11-10T12:22:06.620Z,4.30
2017-11-10T12:27:08.710Z,4.37
2017-11-10T12:29:38.108Z,5.60
2017-11-10T12:32:05.670Z,4.90
2017-11-10T12:34:33.239Z,5.00
2017-11-10T12:37:00.697Z,4.60
2017-11-10T12:39:28.665Z,5.00
2017-11-10T12:41:56.146Z,5.53
2017-11-10T12:44:23.623Z,5.60
2017-11-10T12:46:51.860Z,5.37
2017-11-10T12:49:19.360Z,4.77
2017-11-10T12:51:47.586Z,5.00
2017-11-10T12:54:15.066Z,5.60
2017-11-10T12:56:42.542Z,5.90
2017-11-10T12:59:10.804Z,6.67
2017-11-10T13:01:38.261Z,6.10
2017-11-10T13:04:05.725Z,6.70
2017-11-10T13:06:33.988Z,6.67
2017-11-10T13:09:01.471Z,5.57
2017-11-10T13:11:29.780Z,6.50
2017-11-10T13:13:57.299Z,6.53
2017-11-10T13:16:24.813Z,5.90
2017-11-10T13:18:52.298Z,6.60
2017-11-10T13:21:19.941Z,5.80
2017-11-10T13:23:47.437Z,5.80
2017-11-10T13:26:15.010Z,6.10
2017-11-10T13:28:42.486Z,5.57
2017-11-10T13:31:09.956Z,6.00
2017-11-10T13:33:37.958Z,6.03
2017-11-10T13:36:05.467Z,6.00
2017-11-10T13:38:32.967Z,5.23
2017-11-10T13:41:02.049Z,6.23
2017-11-10T13:43:29.702Z,5.97
2017-11-10T13:45:57.175Z,6.60
2017-11-10T13:48:24.735Z,5.50
2017-11-10T13:50:52.229Z,5.70
2017-11-10T13:53:20.490Z,6.70
2017-11-10T13:55:48.718Z,5.70
2017-11-10T13:58:16.223Z,6.00
2017-11-10T14:00:43.724Z,5.63
2017-11-10T14:03:11.197Z,6.83
2017-11-10T14:05:38.675Z,6.57
2017-11-10T14:08:06.129Z,5.90
2017-11-10T14:10:33.628Z,5.93
2017-11-10T14:13:01.140Z,5.80
2017-11-10T14:15:28.679Z,5.87
2017-11-10T14:17:56.319Z,5.90
2017-11-10T14:20:23.794Z,6.00
2017-11-10T14:22:51.705Z,4.80
2017-11-10T14:25:20.062Z,4.97
2017-11-10T14:27:48.854Z,4.80
2017-11-10T14:30:16.418Z,5.17
2017-11-10T14:32:44.690Z,4.53
2017-11-10T14:35:13.147Z,5.30
2017-11-10T14:37:40.643Z,4.80
2017-11-10T14:40:08.879Z,5.60
2017-11-10T14:42:36.356Z,5.63
2017-11-10T14:45:03.827Z,4.93
2017-11-10T14:47:31.340Z,4.80
2017-11-10T14:49:58.994Z,5.40
2017-11-10T14:52:26.512Z,5.83
2017-11-10T14:54:55.011Z,4.53
2017-11-10T14:57:23.108Z,3.23
2017-11-10T14:59:50.650Z,2.90
2017-11-10T15:02:18.136Z,3.77
2017-11-10T15:04:45.649Z,3.07
2017-11-10T15:07:14.382Z,2.70
2017-11-10T15:09:41.851Z,2.60
2017-11-10T15:12:09.413Z,2.60
2017-11-10T15:14:37.037Z,2.80
2017-11-10T15:17:04.713Z,3.20
2017-11-10T15:19:32.194Z,2.50
2017-11-10T15:21:59.907Z,2.50
2017-11-10T15:24:27.410Z,2.70
2017-11-10T15:26:54.989Z,2.57
2017-11-10T15:29:23.355Z,2.33
2017-11-10T15:31:50.949Z,2.97
2017-11-10T15:34:19.198Z,2.60
2017-11-10T15:36:46.723Z,2.80
2017-11-10T15:39:14.190Z,2.80
2017-11-10T15:41:41.678Z,2.60
2017-11-10T15:44:09.952Z,3.50
2017-11-10T15:46:37.683Z,2.80
2017-11-10T15:49:05.146Z,3.03
2017-11-10T15:51:32.610Z,3.03
2017-11-10T15:54:00.189Z,2.50
2017-11-10T15:56:27.717Z,2.43
2017-11-10T15:58:55.394Z,2.90
2017-11-10T16:01:22.867Z,3.50
2017-11-10T16:03:51.166Z,3.70
2017-11-10T16:06:18.681Z,2.80
2017-11-10T16:08:46.153Z,2.83
2017-11-10T16:11:14.426Z,2.97
2017-11-10T16:13:41.907Z,2.67
2017-11-10T16:16:10.326Z,4.60
2017-11-10T16:18:38.029Z,2.90
2017-11-10T16:21:05.508Z,3.50
2017-11-10T16:23:33.340Z,3.43
2017-11-10T16:26:00.889Z,2.77
2017-11-10T16:28:28.369Z,3.87
2017-11-10T16:30:56.631Z,2.90
2017-11-10T16:33:24.111Z,2.90
2017-11-10T16:35:52.624Z,3.37
2017-11-10T16:38:20.098Z,4.40
2017-11-10T16:40:47.586Z,2.97
2017-11-10T16:43:15.865Z,3.60
2017-11-10T16:45:43.471Z,3.33
2017-11-10T16:48:10.969Z,2.80
2017-11-10T16:50:38.444Z,3.30
2017-11-10T16:53:05.950Z,3.20
2017-11-10T16:55:34.000Z,4.20
2017-11-10T16:58:01.936Z,3.50
2017-11-10T17:00:29.506Z,3.40
2017-11-10T17:02:57.012Z,3.37
2017-11-10T17:05:24.528Z,3.37
2017-11-10T17:07:52.771Z,3.80
2017-11-10T17:10:20.250Z,3.90
2017-11-10T17:12:47.739Z,3.83
2017-11-10T17:15:15.251Z,4.50
2017-11-10T17:17:42.727Z,3.93
2017-11-10T17:20:11.870Z,2.93
2017-11-10T17:22:39.668Z,3.47
2017-11-10T17:25:07.999Z,3.43
2017-11-10T17:27:35.919Z,4.00
2017-11-10T17:30:04.270Z,3.33
2017-11-10T17:32:32.360Z,3.60
2017-11-10T17:35:00.086Z,3.23
2017-11-10T17:37:27.612Z,5.03
2017-11-10T17:39:56.104Z,4.57
2017-11-10T17:42:23.596Z,3.20
2017-11-10T17:44:51.132Z,5.13
2017-11-10T17:47:18.826Z,3.60
2017-11-10T17:49:46.353Z,2.87
2017-11-10T17:52:13.840Z,3.83
2017-11-10T17:54:41.338Z,3.70
2017-11-10T17:57:09.580Z,2.87
2017-11-10T17:59:37.053Z,3.17
2017-11-10T18:02:04.534Z,3.27
2017-11-10T18:04:33.492Z,3.57
2017-11-10T18:07:02.473Z,2.83
2017-11-10T18:09:29.946Z,3.23
2017-11-10T18:11:58.226Z,3.43
2017-11-10T18:14:25.721Z,3.23
2017-11-10T18:16:53.343Z,4.00
2017-11-10T18:19:21.191Z,3.97
2017-11-10T18:21:48.709Z,3.20
2017-11-10T18:24:16.310Z,4.20
2017-11-10T18:26:43.806Z,3.30
2017-11-10T18:29:12.040Z,3.70
2017-11-10T18:31:39.703Z,5.40
2017-11-10T18:34:07.249Z,4.10
2017-11-10T18:36:34.767Z,4.77
2017-11-10T18:39:03.035Z,5.03
2017-11-10T18:41:31.313Z,4.30
2017-11-10T18:43:59.774Z,4.70
2017-11-10T18:46:28.121Z,6.10
2017-11-10T18:48:57.598Z,5.20
2017-11-10T18:51:25.422Z,6.20
2017-11-10T18:53:52.943Z,5.40
2017-11-10T18:56:20.430Z,5.47
2017-11-10T18:58:48.815Z,6.07
2017-11-10T19:01:16.301Z,4.57
2017-11-10T19:03:43.789Z,4.67
2017-11-10T19:06:11.308Z,4.00
2017-11-10T19:08:39.618Z,4.63
2017-11-10T19:11:07.142Z,4.40
2017-11-10T19:13:35.556Z,4.40
2017-11-10T19:16:03.345Z,4.33
2017-11-10T19:18:30.817Z,4.53
2017-11-10T19:20:58.324Z,4.10
2017-11-10T19:23:25.802Z,4.93
2017-11-10T19:25:53.278Z,5.07
2017-11-10T19:28:20.766Z,5.67
2017-11-10T19:30:49.249Z,5.13
2017-11-10T19:33:17.562Z,4.30
2017-11-10T19:35:45.141Z,6.90
2017-11-10T19:38:12.604Z,5.53
2017-11-10T19:40:40.148Z,5.33
2017-11-10T19:43:07.650Z,5.47
2017-11-10T19:45:35.946Z,6.33
2017-11-10T19:48:03.451Z,4.83
2017-11-10T19:50:31.782Z,5.03
2017-11-10T19:52:59.297Z,4.87
2017-11-10T19:55:27.883Z,5.07
2017-11-10T19:57:55.391Z,4.80
2017-11-10T20:00:22.886Z,5.50
2017-11-10T20:02:50.416Z,4.63
2017-11-10T20:05:17.902Z,5.47
2017-11-10T20:07:45.432Z,6.50
2017-11-10T20:10:12.919Z,6.03
2017-11-10T20:12:40.379Z,7.43
2017-11-10T20:15:07.874Z,6.17
2017-11-10T20:17:36.120Z,6.20
2017-11-10T20:20:03.609Z,15.77
2017-11-10T20:22:31.118Z,10.83
2017-11-10T20:24:58.591Z,11.33
2017-11-10T20:27:27.600Z,16.07
2017-11-10T20:29:55.851Z,8.03
2017-11-10T20:32:24.018Z,22.87
2017-11-10T20:34:51.498Z,10.47
2017-11-10T20:37:19.243Z,6.63
2017-11-10T20:39:46.741Z,7.20
2017-11-10T20:42:14.226Z,6.60
2017-11-10T20:44:41.714Z,6.93
2017-11-10T20:47:11.121Z,7.10
2017-11-10T20:49:39.307Z,7.00
2017-11-10T20:52:08.448Z,6.90
2017-11-10T20:54:35.996Z,6.70
2017-11-10T20:57:03.477Z,7.13
2017-11-10T20:59:30.976Z,6.70
2017-11-10T21:01:58.438Z,7.60
2017-11-10T21:04:25.968Z,6.30
2017-11-10T21:06:53.477Z,6.00
2017-11-10T21:09:20.940Z,6.90
2017-11-10T21:11:48.412Z,7.67
2017-11-10T21:14:15.905Z,5.80
2017-11-10T21:16:43.389Z,6.40
2017-11-10T21:19:11.611Z,6.20
2017-11-10T21:21:39.102Z,7.47
2017-11-10T21:24:06.579Z,7.30
2017-11-10T21:26:34.954Z,8.27
2017-11-10T21:29:07.379Z,7.53
2017-11-10T21:31:34.844Z,8.13
2017-11-10T21:34:02.339Z,8.23
2017-11-10T21:36:29.950Z,9.00
2017-11-10T21:38:57.438Z,9.77
2017-11-10T21:41:25.139Z,8.90
2017-11-10T21:43:52.632Z,10.70
2017-11-10T21:46:20.185Z,8.50
2017-11-10T21:48:47.676Z,9.80
2017-11-10T21:51:15.368Z,10.17
2017-11-10T21:53:43.664Z,9.90
2017-11-10T21:56:11.120Z,10.60
2017-11-10T21:58:38.607Z,8.80
2017-11-10T22:01:06.077Z,10.33
2017-11-10T22:03:33.588Z,9.83
2017-11-10T22:06:01.268Z,9.83
2017-11-10T22:08:28.758Z,10.60
2017-11-10T22:10:56.226Z,9.07
2017-11-10T22:13:24.505Z,9.30
2017-11-10T22:15:52.004Z,9.73
2017-11-10T22:18:20.044Z,9.20
2017-11-10T22:20:48.478Z,9.27
2017-11-10T22:23:16.321Z,9.90
2017-11-10T22:25:44.746Z,9.50
2017-11-10T22:28:12.212Z,9.27
2017-11-10T22:30:39.721Z,9.20
2017-11-10T22:33:07.201Z,9.53
2017-11-10T22:35:34.860Z,9.10
2017-11-10T22:38:02.344Z,10.37
2017-11-10T22:40:29.822Z,10.00
2017-11-10T22:42:58.070Z,9.80
2017-11-10T22:45:25.639Z,11.87
2017-11-10T22:47:53.160Z,10.70
2017-11-10T22:50:21.842Z,9.73
2017-11-10T22:52:49.313Z,10.70
2017-11-10T22:55:16.918Z,10.27
2017-11-10T22:57:45.146Z,10.50
2017-11-10T23:00:12.640Z,9.70
2017-11-10T23:02:40.862Z,9.17
2017-11-10T23:05:08.350Z,9.20
2017-11-10T23:07:35.814Z,10.10
2017-11-10T23:10:03.334Z,9.27
2017-11-10T23:12:30.794Z,9.37
2017-11-10T23:14:58.289Z,9.30
2017-11-10T23:17:25.995Z,8.33
2017-11-10T23:19:53.458Z,7.90
2017-11-10T23:22:20.930Z,8.23
2017-11-10T23:24:48.398Z,7.43
2017-11-10T23:27:16.001Z,7.67
2017-11-10T23:29:44.229Z,7.33
2017-11-10T23:34:46.237Z,6.40
2017-11-10T23:37:13.697Z,7.37
2017-11-10T23:39:41.165Z,6.33
2017-11-10T23:42:09.395Z,6.10
2017-11-10T23:44:36.872Z,5.53
2017-11-10T23:47:04.330Z,5.83
2017-11-10T23:49:31.816Z,5.53
2017-11-10T23:52:00.041Z,6.27
2017-11-10T23:54:27.717Z,5.97
2017-11-10T23:56:55.211Z,5.90
2017-11-10T23:59:22.663Z,4.70
